Kailua, Hawaii
Current Conditions -  °F | °C
As of 4:57 PM on Monday 26 Jan 2015 (Local Time) from PHNG Reporting Station
Broken Clouds Broken Clouds  
Wind Chill: 74°   Ceiling: 4200
Heat Index: 74°   Visibility: 7mi
Dew Point: 58°   Wind: 10mph
Humidity: 57%   Direction: 80°E
Pressure: 29.93"   Gusts: NA
Location:  21.4°N, 157.74°W
Report Text: PHNG 270257Z 08009KT 7SM BKN042 23/14 A2993 RMK AO2 SLP130 T02330144 55006 $
Loading
Personal Weather Stations






























Interactive Weather Map New forecast layout! Learn more

10-Day Weather Forecast

Advertisements
Track Severe Weather on mobile